createdAt,value
2023-02-24T00:02:04.029Z,99.9
2023-02-24T00:07:03.930Z,99.9
2023-02-24T00:12:03.913Z,99.9
2023-02-24T00:17:03.988Z,99.9
2023-02-24T00:22:03.948Z,99.9
2023-02-24T00:27:03.918Z,99.9
2023-02-24T00:32:04.149Z,99.9
2023-02-24T00:37:03.936Z,99.9
2023-02-24T00:42:03.943Z,99.9
2023-02-24T00:47:03.937Z,99.9
2023-02-24T00:52:03.933Z,99.9
2023-02-24T00:57:03.969Z,99.9
2023-02-24T01:02:04.021Z,99.9
2023-02-24T01:07:03.897Z,99.9
2023-02-24T01:12:03.975Z,99.9
2023-02-24T01:17:03.940Z,99.9
2023-02-24T01:22:03.928Z,99.9
2023-02-24T01:27:03.900Z,99.9
2023-02-24T01:32:04.114Z,99.9
2023-02-24T01:37:03.895Z,99.9
2023-02-24T01:42:03.928Z,98.3
2023-02-24T01:47:04.037Z,97
2023-02-24T01:52:03.904Z,94.6
2023-02-24T01:57:03.944Z,94.1
2023-02-24T02:02:03.997Z,93.2
2023-02-24T02:07:03.944Z,92.9
2023-02-24T02:12:03.895Z,93.2
2023-02-24T02:17:03.914Z,92.8
2023-02-24T02:22:03.947Z,92.2
2023-02-24T02:27:03.924Z,91.8
2023-02-24T02:32:04.014Z,91.9
2023-02-24T02:37:03.942Z,91.9
2023-02-24T02:42:03.963Z,91.4
2023-02-24T02:47:03.911Z,91.2
2023-02-24T02:52:03.908Z,89.9
2023-02-24T02:57:03.950Z,89.6
2023-02-24T03:02:03.964Z,89.2
2023-02-24T03:07:03.904Z,88.1
2023-02-24T03:12:03.904Z,88.4
2023-02-24T03:17:03.952Z,89
2023-02-24T03:22:03.928Z,88.6
2023-02-24T03:27:03.908Z,88.7
2023-02-24T03:32:04.002Z,88.7
2023-02-24T03:37:03.915Z,89.2
2023-02-24T03:42:03.987Z,88
2023-02-24T03:47:03.957Z,88.2
2023-02-24T03:52:03.947Z,88.2
2023-02-24T03:57:04.097Z,88.7
2023-02-24T04:02:04.063Z,88.7
2023-02-24T04:07:03.961Z,89
2023-02-24T04:12:03.975Z,88.7
2023-02-24T04:17:03.941Z,89.1
2023-02-24T04:22:03.974Z,89.4
2023-02-24T04:27:03.941Z,89.5
2023-02-24T04:32:04.176Z,90
2023-02-24T04:37:03.938Z,90.2
2023-02-24T04:42:03.958Z,90.2
2023-02-24T04:47:04.024Z,90.1
2023-02-24T04:52:03.953Z,90
2023-02-24T04:57:03.940Z,90.1
2023-02-24T05:02:03.951Z,90.3
2023-02-24T05:07:03.948Z,90.3
2023-02-24T05:12:03.935Z,90.3
2023-02-24T05:17:03.939Z,90.6
2023-02-24T05:22:03.971Z,90.3
2023-02-24T05:27:04.103Z,90.1
2023-02-24T05:32:04.197Z,90.3
2023-02-24T05:37:03.940Z,90.1
2023-02-24T05:42:03.969Z,89.7
2023-02-24T05:47:03.965Z,90
2023-02-24T05:52:03.927Z,90
2023-02-24T05:57:03.959Z,90.1
2023-02-24T06:02:04.020Z,90.2
2023-02-24T06:07:03.938Z,90.5
2023-02-24T06:12:04.033Z,90.5
2023-02-24T06:17:03.984Z,90.5
2023-02-24T06:22:04.034Z,90.6
2023-02-24T06:27:04.011Z,90.6
2023-02-24T06:32:04.101Z,90.5
2023-02-24T06:37:04.053Z,90.3
2023-02-24T06:42:04.051Z,90.4
2023-02-24T06:47:04.043Z,90.3
2023-02-24T06:52:04.042Z,90.2
2023-02-24T06:57:04.054Z,91.2
2023-02-24T07:02:04.077Z,91.7
2023-02-24T07:07:04.029Z,90.7
2023-02-24T07:12:04.037Z,90.6
2023-02-24T07:17:04.086Z,90.9
2023-02-24T07:22:04.053Z,90.2
2023-02-24T07:27:04.093Z,89
2023-02-24T07:32:04.142Z,88.7
2023-02-24T07:37:04.359Z,87.7
2023-02-24T07:42:04.104Z,87.4
2023-02-24T07:47:04.043Z,86.4
2023-02-24T07:52:04.046Z,85.3
2023-02-24T07:57:04.050Z,84.3
2023-02-24T08:02:04.095Z,83
2023-02-24T08:07:04.041Z,82
2023-02-24T08:12:04.020Z,80.7
2023-02-24T08:17:04.039Z,79.3
2023-02-24T08:22:04.059Z,78.8
2023-02-24T08:27:04.199Z,79.8
2023-02-24T08:32:04.110Z,80.5
2023-02-24T08:37:04.021Z,80.6
2023-02-24T08:42:04.175Z,80.8
2023-02-24T08:47:04.076Z,79.6
2023-02-24T08:52:04.052Z,79.8
2023-02-24T08:57:04.290Z,79.6
2023-02-24T09:02:05.052Z,79.4
2023-02-24T09:07:11.398Z,78.6
2023-02-24T09:12:04.047Z,78.3
2023-02-24T09:17:04.186Z,78.5
2023-02-24T09:22:07.929Z,78.5
2023-02-24T09:27:04.036Z,78.6
2023-02-24T09:32:04.112Z,78.1
2023-02-24T09:37:04.063Z,78.6
2023-02-24T09:42:04.046Z,79
2023-02-24T09:47:04.019Z,79.6
2023-02-24T09:52:04.030Z,79.7
2023-02-24T09:57:04.061Z,79.7
2023-02-24T10:02:04.147Z,79.8
2023-02-24T10:07:04.028Z,79.4
2023-02-24T10:12:04.152Z,78.8
2023-02-24T10:17:04.107Z,77.8
2023-02-24T10:22:04.102Z,77.6
2023-02-24T10:27:08.233Z,77.8
2023-02-24T10:32:04.290Z,77.1
2023-02-24T10:37:04.041Z,76.9
2023-02-24T10:42:04.181Z,76.6
2023-02-24T10:47:04.276Z,77.7
2023-02-24T10:52:04.214Z,79.5
2023-02-24T10:57:04.065Z,81.4
2023-02-24T11:02:04.182Z,84.7
2023-02-24T11:07:04.125Z,87.5
2023-02-24T11:12:04.126Z,90
2023-02-24T11:17:04.184Z,90.8
2023-02-24T11:22:04.075Z,91.4
2023-02-24T11:27:04.526Z,93.4
2023-02-24T11:32:04.144Z,94.5
2023-02-24T11:37:04.074Z,95.6
2023-02-24T11:42:04.078Z,97.4
2023-02-24T11:47:04.067Z,98.6
2023-02-24T11:52:04.068Z,99.7
2023-02-24T11:57:04.082Z,99.9
2023-02-24T12:02:04.075Z,99.9
2023-02-24T12:07:06.407Z,99.9
2023-02-24T12:12:04.106Z,99.9
2023-02-24T12:17:04.091Z,99.9
2023-02-24T12:22:04.141Z,99.9
2023-02-24T12:27:04.062Z,99.9
2023-02-24T12:32:04.146Z,99.9
2023-02-24T12:37:04.042Z,99.9
2023-02-24T12:42:04.069Z,99.9
2023-02-24T12:47:04.032Z,99.9
2023-02-24T12:52:04.031Z,99.9
2023-02-24T12:57:04.041Z,99.9
2023-02-24T13:02:04.090Z,99.9
2023-02-24T13:07:04.038Z,99.9
2023-02-24T13:12:04.822Z,99.9
2023-02-24T13:17:04.029Z,99.9
2023-02-24T13:22:04.044Z,99.9
2023-02-24T13:27:04.023Z,99.9
2023-02-24T13:32:04.183Z,99.9
2023-02-24T13:37:04.017Z,99.9
2023-02-24T13:42:04.131Z,99.9
2023-02-24T13:47:04.018Z,99.9
2023-02-24T13:52:04.027Z,99.9
2023-02-24T13:57:04.040Z,99.9
2023-02-24T14:02:04.071Z,99.9
2023-02-24T14:07:04.047Z,99.9
2023-02-24T14:12:04.011Z,99.9
2023-02-24T14:17:04.068Z,99.9
2023-02-24T14:22:04.052Z,99.9
2023-02-24T14:27:04.125Z,99.9
2023-02-24T14:32:04.249Z,99.9
2023-02-24T14:37:04.166Z,99.9
2023-02-24T14:42:04.161Z,99.9
2023-02-24T14:47:04.155Z,99.9
2023-02-24T14:52:04.132Z,99.9
2023-02-24T14:57:04.184Z,99.9
2023-02-24T15:02:04.238Z,99.9
2023-02-24T15:07:04.160Z,99.9
2023-02-24T15:12:04.146Z,99.9
2023-02-24T15:17:04.180Z,99.9
2023-02-24T15:22:04.171Z,99.9
2023-02-24T15:27:04.170Z,99.9
2023-02-24T15:32:04.310Z,99.9
2023-02-24T15:37:04.172Z,99.9
2023-02-24T15:42:04.184Z,99.9
2023-02-24T15:47:04.229Z,99.9
2023-02-24T15:52:04.156Z,99.9
2023-02-24T15:57:04.181Z,99.9
2023-02-24T16:02:04.180Z,99.9
2023-02-24T16:07:04.165Z,99.9
2023-02-24T16:12:04.151Z,99.9
2023-02-24T16:17:04.184Z,99.9
2023-02-24T16:22:04.179Z,99.9
2023-02-24T16:27:04.180Z,99.9
2023-02-24T16:32:04.429Z,99.9
2023-02-24T16:37:04.179Z,99.9
2023-02-24T16:42:04.213Z,99.9
2023-02-24T16:47:04.203Z,99.9
2023-02-24T16:52:04.171Z,99.9
2023-02-24T16:57:04.199Z,99.9
2023-02-24T17:02:04.234Z,99.9
2023-02-24T17:07:04.205Z,99.9
2023-02-24T17:12:04.182Z,99.9
2023-02-24T17:17:04.229Z,99.9
2023-02-24T17:22:04.208Z,99.9
2023-02-24T17:27:04.203Z,99.9
2023-02-24T17:32:04.413Z,99.9
2023-02-24T17:37:04.234Z,99.9
2023-02-24T17:42:04.210Z,99.9
2023-02-24T17:47:04.215Z,99.9
2023-02-24T17:52:06.210Z,99.9
2023-02-24T17:57:04.221Z,99.9
2023-02-24T18:02:04.280Z,99.9
2023-02-24T18:07:04.224Z,99.9
2023-02-24T18:12:04.196Z,99.9
2023-02-24T18:17:04.220Z,99.9
2023-02-24T18:22:04.221Z,99.9
2023-02-24T18:27:04.216Z,99.9
2023-02-24T18:32:04.349Z,99.9
2023-02-24T18:37:04.247Z,99.9
2023-02-24T18:42:04.261Z,99.9
2023-02-24T18:47:04.353Z,99.9
2023-02-24T18:52:04.213Z,99.9
2023-02-24T18:57:04.261Z,99.9
2023-02-24T19:02:04.284Z,99.9
2023-02-24T19:07:04.275Z,99.9
2023-02-24T19:12:04.222Z,99.9
2023-02-24T19:17:04.248Z,99.9
2023-02-24T19:22:04.263Z,99.9
2023-02-24T19:27:04.243Z,99.9
2023-02-24T19:32:04.360Z,99.9
2023-02-24T19:37:04.250Z,99.9
2023-02-24T19:42:04.255Z,99.9
2023-02-24T19:47:04.256Z,99.9
2023-02-24T19:52:04.235Z,99.9
2023-02-24T19:57:04.287Z,99.9
2023-02-24T20:02:04.270Z,99.9
2023-02-24T20:07:04.250Z,99.9
2023-02-24T20:12:04.243Z,99.9
2023-02-24T20:17:04.314Z,99.9
2023-02-24T20:22:04.263Z,99.9
2023-02-24T20:27:04.267Z,99.9
2023-02-24T20:32:04.336Z,99.9
2023-02-24T20:37:04.359Z,99.9
2023-02-24T20:42:04.295Z,99.9
2023-02-24T20:47:04.273Z,99.9
2023-02-24T20:52:04.264Z,99.9
2023-02-24T20:57:04.297Z,99.9
2023-02-24T21:02:04.282Z,99.9
2023-02-24T21:07:04.275Z,99.9
2023-02-24T21:12:04.283Z,99.9
2023-02-24T21:17:04.292Z,99.9
2023-02-24T21:22:04.329Z,99.9
2023-02-24T21:27:04.293Z,99.9
2023-02-24T21:32:04.419Z,99.9
2023-02-24T21:37:04.326Z,99.9
2023-02-24T21:42:04.354Z,99.9
2023-02-24T21:47:04.310Z,99.9
2023-02-24T21:52:04.289Z,99.9
2023-02-24T21:57:04.334Z,99.9
2023-02-24T22:02:04.374Z,99.9
2023-02-24T22:07:04.328Z,99.9
2023-02-24T22:12:04.309Z,99.9
2023-02-24T22:17:04.346Z,99.9
2023-02-24T22:22:04.326Z,99.9
2023-02-24T22:27:04.344Z,99.9
2023-02-24T22:32:04.469Z,99.9
2023-02-24T22:37:04.408Z,99.9
2023-02-24T22:42:04.338Z,99.9
2023-02-24T22:47:04.427Z,99.9
2023-02-24T22:52:04.331Z,99.9
2023-02-24T22:57:04.428Z,99.9
2023-02-24T23:02:04.353Z,99.9
2023-02-24T23:07:04.470Z,99.9
2023-02-24T23:12:04.313Z,99.9
2023-02-24T23:17:04.353Z,99.9
2023-02-24T23:22:04.347Z,99.9
2023-02-24T23:27:04.342Z,99.9
2023-02-24T23:32:04.497Z,99.9
2023-02-24T23:37:04.359Z,99.9
2023-02-24T23:42:04.368Z,99.9
2023-02-24T23:47:04.347Z,99.9
2023-02-24T23:52:04.349Z,99.9
2023-02-24T23:57:04.369Z,99.9
